createdAt,value
2023-02-09T00:01:31.051Z,99698.19
2023-02-09T00:04:00.503Z,99693.47
2023-02-09T00:06:30.073Z,99696.34
2023-02-09T00:08:58.951Z,99702.97
2023-02-09T00:11:49.074Z,99704.44
2023-02-09T00:14:21.527Z,99701.75
2023-02-09T00:16:50.736Z,99699.13
2023-02-09T00:19:21.228Z,99699.19
2023-02-09T00:21:49.667Z,99693.03
2023-02-09T00:24:18.087Z,99697.59
2023-02-09T00:26:47.025Z,99697.41
2023-02-09T00:29:15.409Z,99687.69
2023-02-09T00:31:45.000Z,99698.28
2023-02-09T00:34:13.269Z,99695.69
2023-02-09T00:36:44.014Z,99672.78
2023-02-09T00:39:13.106Z,99692.56
2023-02-09T00:41:58.450Z,99676.09
2023-02-09T00:44:27.434Z,99681.09
2023-02-09T00:46:57.875Z,99686.13
2023-02-09T00:49:26.146Z,99679.19
2023-02-09T00:51:54.213Z,99680.78
2023-02-09T00:54:23.110Z,99686.41
2023-02-09T00:56:54.157Z,99671.66
2023-02-09T00:59:22.731Z,99681.00
2023-02-09T01:01:51.657Z,99682.19
2023-02-09T01:04:22.641Z,99689.09
2023-02-09T01:06:50.577Z,99678.88
2023-02-09T01:09:18.732Z,99688.25
2023-02-09T01:11:46.871Z,99676.38
2023-02-09T01:14:15.778Z,99680.03
2023-02-09T01:16:44.743Z,99685.94
2023-02-09T01:19:14.710Z,99678.88
2023-02-09T01:21:44.427Z,99681.00
2023-02-09T01:24:15.604Z,99674.66
2023-02-09T01:26:43.937Z,99667.00
2023-02-09T01:29:17.228Z,99677.81
2023-02-09T01:31:47.609Z,99675.31
2023-02-09T01:34:18.311Z,99671.94
2023-02-09T01:36:49.572Z,99658.22
2023-02-09T01:39:18.033Z,99646.00
2023-02-09T01:41:46.472Z,99653.31
2023-02-09T01:44:51.770Z,99655.03
2023-02-09T01:47:21.485Z,99652.91
2023-02-09T01:49:51.842Z,99646.59
2023-02-09T01:52:27.611Z,99654.84
2023-02-09T01:55:01.369Z,99640.59
2023-02-09T01:57:30.784Z,99640.97
2023-02-09T02:00:02.722Z,99635.28
2023-02-09T02:02:32.762Z,99628.31
2023-02-09T02:05:01.271Z,99629.41
2023-02-09T02:07:40.071Z,99625.00
2023-02-09T02:10:09.042Z,99617.28
2023-02-09T02:12:38.380Z,99627.81
2023-02-09T02:15:07.516Z,99621.91
2023-02-09T02:17:53.171Z,99620.09
2023-02-09T02:21:00.635Z,99615.75
2023-02-09T02:23:36.675Z,99617.69
2023-02-09T02:26:42.330Z,99618.00
2023-02-09T02:29:45.184Z,99608.53
2023-02-09T02:32:37.319Z,99619.31
2023-02-09T02:35:16.232Z,99627.03
2023-02-09T02:37:55.802Z,99614.47
2023-02-09T02:40:34.329Z,99625.38
2023-02-09T02:43:12.786Z,99618.22
2023-02-09T02:45:46.344Z,99633.66
2023-02-09T02:48:25.133Z,99623.94
2023-02-09T02:51:01.068Z,99615.34
2023-02-09T02:53:37.559Z,99629.78
2023-02-09T02:56:11.368Z,99628.00
2023-02-09T02:58:41.504Z,99626.75
2023-02-09T03:01:12.405Z,99620.28
2023-02-09T03:03:45.124Z,99626.91
2023-02-09T03:06:17.174Z,99622.09
2023-02-09T03:08:54.465Z,99623.44
2023-02-09T03:11:24.893Z,99610.34
2023-02-09T03:14:06.728Z,99611.31
2023-02-09T03:16:41.633Z,99621.81
2023-02-09T03:19:25.401Z,99622.28
2023-02-09T03:21:59.910Z,99625.56
2023-02-09T03:24:38.225Z,99622.59
2023-02-09T03:27:15.158Z,99623.25
2023-02-09T03:29:47.418Z,99611.38
2023-02-09T03:32:19.189Z,99629.09
2023-02-09T03:34:49.067Z,99625.81
2023-02-09T03:37:19.278Z,99614.00
2023-02-09T03:39:47.635Z,99600.03
2023-02-09T03:42:16.123Z,99619.75
2023-02-09T03:44:44.701Z,99612.16
2023-02-09T03:47:13.694Z,99606.97
2023-02-09T03:49:45.876Z,99615.31
2023-02-09T03:52:17.342Z,99626.16
2023-02-09T03:54:46.209Z,99620.59
2023-02-09T03:57:14.181Z,99619.13
2023-02-09T03:59:43.891Z,99619.56
2023-02-09T04:02:12.688Z,99620.94
2023-02-09T04:04:41.187Z,99616.56
2023-02-09T04:07:11.496Z,99617.44
2023-02-09T04:09:50.377Z,99616.56
2023-02-09T04:12:18.579Z,99612.66
2023-02-09T04:14:46.576Z,99619.09
2023-02-09T04:17:15.472Z,99629.03
2023-02-09T04:19:43.761Z,99620.31
2023-02-09T04:22:12.254Z,99616.66
2023-02-09T04:24:40.349Z,99620.25
2023-02-09T04:27:10.556Z,99630.13
2023-02-09T04:29:38.826Z,99633.28
2023-02-09T04:32:07.595Z,99638.19
2023-02-09T04:34:35.824Z,99636.25
2023-02-09T04:37:04.293Z,99635.91
2023-02-09T04:39:32.465Z,99624.63
2023-02-09T04:42:01.350Z,99638.91
2023-02-09T04:44:31.132Z,99632.78
2023-02-09T04:46:59.733Z,99622.31
2023-02-09T04:49:27.735Z,99631.25
2023-02-09T04:51:55.836Z,99630.59
2023-02-09T04:54:24.066Z,99634.50
2023-02-09T04:57:12.156Z,99624.09
2023-02-09T04:59:41.933Z,99632.53
2023-02-09T05:02:10.119Z,99623.47
2023-02-09T05:04:38.427Z,99625.44
2023-02-09T05:07:06.392Z,99623.97
2023-02-09T05:09:34.626Z,99628.19
2023-02-09T05:12:02.748Z,99632.78
2023-02-09T05:14:30.764Z,99626.59
2023-02-09T05:17:01.073Z,99628.53
2023-02-09T05:19:29.357Z,99632.34
2023-02-09T05:21:57.569Z,99639.31
2023-02-09T05:24:26.008Z,99633.25
2023-02-09T05:26:54.076Z,99637.69
2023-02-09T05:29:22.379Z,99639.97
2023-02-09T05:31:50.396Z,99632.78
2023-02-09T05:34:20.770Z,99635.97
2023-02-09T05:36:49.248Z,99633.38
2023-02-09T05:39:18.264Z,99633.88
2023-02-09T05:42:03.608Z,99626.81
2023-02-09T05:44:32.128Z,99646.41
2023-02-09T05:47:00.259Z,99638.56
2023-02-09T05:49:29.998Z,99635.97
2023-02-09T05:51:58.400Z,99624.22
2023-02-09T05:54:27.557Z,99625.00
2023-02-09T05:56:55.848Z,99630.97
2023-02-09T05:59:24.531Z,99627.94
2023-02-09T06:01:53.245Z,99632.59
2023-02-09T06:04:24.055Z,99629.31
2023-02-09T06:06:54.869Z,99625.44
2023-02-09T06:09:24.101Z,99606.75
2023-02-09T06:11:52.763Z,99634.66
2023-02-09T06:14:21.912Z,99647.59
2023-02-09T06:16:50.080Z,99644.41
2023-02-09T06:19:22.036Z,99657.91
2023-02-09T06:21:50.929Z,99651.59
2023-02-09T06:24:23.464Z,99638.59
2023-02-09T06:26:51.661Z,99634.44
2023-02-09T06:29:19.869Z,99641.94
2023-02-09T06:31:48.313Z,99644.09
2023-02-09T06:34:16.471Z,99642.28
2023-02-09T06:36:44.692Z,99658.53
2023-02-09T06:39:13.168Z,99655.06
2023-02-09T06:41:42.972Z,99647.88
2023-02-09T06:44:12.169Z,99648.97
2023-02-09T06:46:40.594Z,99655.72
2023-02-09T06:49:08.794Z,99654.41
2023-02-09T06:51:37.189Z,99645.97
2023-02-09T06:54:06.027Z,99650.28
2023-02-09T06:56:34.479Z,99636.84
2023-02-09T06:59:04.362Z,99646.91
2023-02-09T07:01:32.353Z,99649.97
2023-02-09T07:04:00.525Z,99647.69
2023-02-09T07:06:29.214Z,99660.94
2023-02-09T07:08:57.408Z,99645.09
2023-02-09T07:11:25.890Z,99649.28
2023-02-09T07:13:54.018Z,99652.00
2023-02-09T07:16:23.535Z,99658.13
2023-02-09T07:18:54.579Z,99650.63
2023-02-09T07:21:23.017Z,99667.22
2023-02-09T07:23:52.752Z,99674.41
2023-02-09T07:26:20.632Z,99664.09
2023-02-09T07:28:49.587Z,99671.16
2023-02-09T07:31:18.797Z,99670.00
2023-02-09T07:33:48.410Z,99667.81
2023-02-09T07:36:17.813Z,99666.75
2023-02-09T07:38:46.130Z,99659.94
2023-02-09T07:41:17.617Z,99667.06
2023-02-09T07:43:46.316Z,99656.38
2023-02-09T07:46:16.885Z,99662.75
2023-02-09T07:48:45.109Z,99665.72
2023-02-09T07:51:16.100Z,99671.63
2023-02-09T07:53:44.151Z,99671.59
2023-02-09T07:56:13.510Z,99678.72
2023-02-09T07:58:41.609Z,99678.44
2023-02-09T08:01:12.992Z,99678.97
2023-02-09T08:03:43.565Z,99671.16
2023-02-09T08:06:19.736Z,99684.56
2023-02-09T08:08:49.025Z,99688.16
2023-02-09T08:11:20.143Z,99676.56
2023-02-09T08:13:49.223Z,99680.91
2023-02-09T08:16:21.630Z,99681.47
2023-02-09T08:18:55.144Z,99678.69
2023-02-09T08:21:25.484Z,99674.72
2023-02-09T08:23:59.286Z,99678.22
2023-02-09T08:26:27.873Z,99672.63
2023-02-09T08:28:57.722Z,99671.38
2023-02-09T08:31:26.021Z,99675.56
2023-02-09T08:33:54.908Z,99682.88
2023-02-09T08:36:25.619Z,99673.56
2023-02-09T08:38:53.983Z,99665.59
2023-02-09T08:41:22.094Z,99668.56
2023-02-09T08:43:51.800Z,99661.31
2023-02-09T08:46:20.368Z,99660.28
2023-02-09T08:48:48.614Z,99658.13
2023-02-09T08:51:17.824Z,99668.28
2023-02-09T08:53:52.676Z,99674.69
2023-02-09T08:56:22.151Z,99662.09
2023-02-09T08:58:51.156Z,99662.28
2023-02-09T09:01:19.358Z,99662.25
2023-02-09T09:03:47.725Z,99662.06
2023-02-09T09:06:15.855Z,99652.81
2023-02-09T09:08:44.052Z,99658.25
2023-02-09T09:11:14.884Z,99655.03
2023-02-09T09:13:45.424Z,99650.31
2023-02-09T09:16:17.632Z,99651.78
2023-02-09T09:18:46.364Z,99647.06
2023-02-09T09:21:14.793Z,99656.13
2023-02-09T09:23:42.967Z,99647.31
2023-02-09T09:26:11.397Z,99645.03
2023-02-09T09:28:40.733Z,99641.75
2023-02-09T09:31:09.772Z,99642.84
2023-02-09T09:33:38.539Z,99640.66
2023-02-09T09:36:08.327Z,99643.50
2023-02-09T09:38:37.815Z,99639.69
2023-02-09T09:41:08.269Z,99637.66
2023-02-09T09:43:38.889Z,99641.19
2023-02-09T09:46:16.515Z,99636.53
2023-02-09T09:48:47.221Z,99634.31
2023-02-09T09:51:21.354Z,99643.06
2023-02-09T09:53:52.670Z,99644.38
2023-02-09T09:56:22.379Z,99633.47
2023-02-09T09:58:52.026Z,99631.88
2023-02-09T10:01:23.404Z,99643.63
2023-02-09T10:03:51.522Z,99637.16
2023-02-09T10:06:22.192Z,99639.25
2023-02-09T10:08:56.186Z,99630.75
2023-02-09T10:11:28.989Z,99641.72
2023-02-09T10:13:59.015Z,99649.03
2023-02-09T10:16:34.334Z,99640.91
2023-02-09T10:19:04.617Z,99651.38
2023-02-09T10:21:36.098Z,99655.00
2023-02-09T10:24:12.495Z,99652.47
2023-02-09T10:26:43.101Z,99649.13
2023-02-09T10:29:25.164Z,99636.13
2023-02-09T10:32:03.875Z,99639.66
2023-02-09T10:34:42.205Z,99644.31
2023-02-09T10:37:28.155Z,99631.47
2023-02-09T10:40:16.217Z,99629.34
2023-02-09T10:42:55.021Z,99638.06
2023-02-09T10:45:28.190Z,99606.03
2023-02-09T10:48:03.118Z,99610.28
2023-02-09T10:50:31.306Z,99614.88
2023-02-09T10:53:02.042Z,99618.63
2023-02-09T10:55:36.092Z,99624.06
2023-02-09T10:58:25.975Z,99618.66
2023-02-09T11:01:01.658Z,99623.06
2023-02-09T11:03:31.751Z,99624.38
2023-02-09T11:06:03.172Z,99607.09
2023-02-09T11:08:41.667Z,99611.09
2023-02-09T11:11:20.804Z,99611.09
2023-02-09T11:13:51.840Z,99608.06
2023-02-09T11:16:34.907Z,99610.59
2023-02-09T11:19:14.254Z,99602.47
2023-02-09T11:21:56.648Z,99611.19
2023-02-09T11:24:38.757Z,99609.38
2023-02-09T11:27:19.658Z,99605.00
2023-02-09T11:29:54.328Z,99594.03
2023-02-09T11:32:28.361Z,99591.00
2023-02-09T11:35:10.347Z,99598.31
2023-02-09T11:37:51.952Z,99598.31
2023-02-09T11:40:27.759Z,99600.66
2023-02-09T11:43:19.044Z,99591.03
2023-02-09T11:45:49.317Z,99591.81
2023-02-09T11:48:26.079Z,99592.03
2023-02-09T11:51:03.078Z,99594.13
2023-02-09T11:53:40.988Z,99590.72
2023-02-09T11:56:12.248Z,99586.78
2023-02-09T11:58:50.946Z,99583.53
2023-02-09T12:01:30.452Z,99555.47
2023-02-09T12:04:15.797Z,99572.16
2023-02-09T12:06:49.668Z,99571.28
2023-02-09T12:09:30.192Z,99565.84
2023-02-09T12:12:09.322Z,99561.72
2023-02-09T12:14:49.021Z,99568.59
2023-02-09T12:17:22.665Z,99557.78
2023-02-09T12:19:57.297Z,99555.00
2023-02-09T12:22:51.867Z,99554.53
2023-02-09T12:25:34.190Z,99548.50
2023-02-09T12:28:42.996Z,99540.91
2023-02-09T12:31:14.643Z,99541.03
2023-02-09T12:34:14.449Z,99543.22
2023-02-09T12:37:20.300Z,99526.63
2023-02-09T12:40:21.786Z,99515.88
2023-02-09T12:43:27.949Z,99513.38
2023-02-09T12:46:23.008Z,99512.78
2023-02-09T12:49:07.799Z,99506.09
2023-02-09T12:51:46.546Z,99490.13
2023-02-09T12:54:37.861Z,99512.78
2023-02-09T13:00:53.338Z,99516.88
2023-02-09T13:03:26.080Z,99510.84
2023-02-09T13:05:59.812Z,99502.44
2023-02-09T13:08:46.619Z,99499.22
2023-02-09T13:11:31.167Z,99503.28
2023-02-09T13:14:03.397Z,99503.81
2023-02-09T13:17:16.620Z,99494.06
2023-02-09T13:20:09.019Z,99490.91
2023-02-09T13:22:52.090Z,99484.00
2023-02-09T13:25:27.854Z,99487.28
2023-02-09T13:27:56.422Z,99484.97
2023-02-09T13:30:30.139Z,99487.59
2023-02-09T13:33:08.410Z,99485.78
2023-02-09T13:35:44.052Z,99487.19
2023-02-09T13:38:17.890Z,99491.84
2023-02-09T13:40:48.661Z,99472.69
2023-02-09T13:43:20.396Z,99491.84
2023-02-09T13:45:49.922Z,99496.81
2023-02-09T13:48:25.228Z,99491.84
2023-02-09T13:50:55.375Z,99489.63
2023-02-09T13:53:25.132Z,99489.59
2023-02-09T13:55:55.985Z,99492.06
2023-02-09T13:58:28.641Z,99489.22
2023-02-09T14:01:00.503Z,99489.44
2023-02-09T14:03:33.674Z,99490.34
2023-02-09T14:06:09.088Z,99498.00
2023-02-09T14:08:42.233Z,99497.25
2023-02-09T14:11:33.349Z,99509.00
2023-02-09T14:14:14.641Z,99509.00
2023-02-09T14:16:53.394Z,99516.69
2023-02-09T14:19:28.179Z,99523.31
2023-02-09T14:21:56.720Z,99526.06
2023-02-09T14:24:25.524Z,99545.41
2023-02-09T14:26:56.607Z,99532.75
2023-02-09T14:29:28.325Z,99519.91
2023-02-09T14:31:57.883Z,99531.91
2023-02-09T14:34:37.045Z,99537.78
2023-02-09T14:37:32.865Z,99533.22
2023-02-09T14:40:14.566Z,99545.91
2023-02-09T14:43:05.574Z,99540.34
2023-02-09T14:45:39.323Z,99540.38
2023-02-09T14:48:18.792Z,99538.53
2023-02-09T14:50:49.723Z,99543.47
2023-02-09T14:53:19.202Z,99539.28
2023-02-09T14:55:48.070Z,99542.81
2023-02-09T14:58:24.194Z,99536.69
2023-02-09T15:00:55.562Z,99540.81
2023-02-09T15:03:24.346Z,99533.44
2023-02-09T15:05:58.949Z,99535.69
2023-02-09T15:08:30.473Z,99543.22
2023-02-09T15:11:01.426Z,99536.28
2023-02-09T15:13:32.642Z,99541.31
2023-02-09T15:16:01.347Z,99544.84
2023-02-09T15:18:29.595Z,99552.47
2023-02-09T15:20:59.768Z,99541.09
2023-02-09T15:23:28.165Z,99545.13
2023-02-09T15:25:56.114Z,99545.06
2023-02-09T15:28:28.714Z,99546.66
2023-02-09T15:30:57.807Z,99547.78
2023-02-09T15:33:27.030Z,99551.50
2023-02-09T15:35:58.891Z,99550.91
2023-02-09T15:38:29.493Z,99550.78
2023-02-09T15:41:15.453Z,99547.94
2023-02-09T15:44:01.867Z,99550.19
2023-02-09T15:46:47.489Z,99553.00
2023-02-09T15:49:15.889Z,99554.78
2023-02-09T15:51:44.169Z,99559.56
2023-02-09T15:54:19.579Z,99566.16
2023-02-09T15:56:49.640Z,99567.63
2023-02-09T15:59:21.417Z,99564.59
2023-02-09T16:01:49.984Z,99571.38
2023-02-09T16:04:18.693Z,99571.91
2023-02-09T16:06:51.522Z,99564.72
2023-02-09T16:09:24.258Z,99575.22
2023-02-09T16:11:52.423Z,99575.75
2023-02-09T16:14:23.546Z,99580.75
2023-02-09T16:16:52.434Z,99576.88
2023-02-09T16:19:22.056Z,99573.84
2023-02-09T16:21:53.090Z,99577.50
2023-02-09T16:24:30.615Z,99577.25
2023-02-09T16:27:00.300Z,99588.84
2023-02-09T16:29:29.735Z,99588.13
2023-02-09T16:31:59.105Z,99596.50
2023-02-09T16:34:27.273Z,99605.50
2023-02-09T16:36:55.626Z,99585.94
2023-02-09T16:39:25.969Z,99595.50
2023-02-09T16:41:54.387Z,99600.38
2023-02-09T16:44:24.553Z,99594.25
2023-02-09T16:46:55.517Z,99605.34
2023-02-09T16:49:35.403Z,99610.91
2023-02-09T16:52:07.565Z,99622.88
2023-02-09T16:54:42.890Z,99616.38
2023-02-09T16:57:15.121Z,99615.41
2023-02-09T16:59:43.813Z,99607.88
2023-02-09T17:02:36.214Z,99610.31
2023-02-09T17:05:16.341Z,99591.75
2023-02-09T17:07:53.997Z,99601.38
2023-02-09T17:10:27.177Z,99611.09
2023-02-09T17:12:55.331Z,99608.97
2023-02-09T17:15:31.543Z,99594.94
2023-02-09T17:18:04.972Z,99611.91
2023-02-09T17:20:38.992Z,99611.19
2023-02-09T17:23:07.620Z,99615.53
2023-02-09T17:25:38.321Z,99611.28
2023-02-09T17:28:06.854Z,99611.75
2023-02-09T17:30:35.901Z,99612.34
2023-02-09T17:33:06.593Z,99616.59
2023-02-09T17:36:22.530Z,99618.91
2023-02-09T17:38:30.465Z,99624.75
2023-02-09T17:41:02.512Z,99628.31
2023-02-09T17:43:40.655Z,99628.88
2023-02-09T17:46:10.496Z,99632.16
2023-02-09T17:48:39.933Z,99636.75
2023-02-09T17:51:10.798Z,99649.09
2023-02-09T17:53:41.225Z,99647.22
2023-02-09T17:56:12.029Z,99651.00
2023-02-09T17:58:44.656Z,99646.91
2023-02-09T18:01:26.542Z,99651.50
2023-02-09T18:03:55.308Z,99643.44
2023-02-09T18:06:30.035Z,99660.34
2023-02-09T18:08:58.617Z,99654.19
2023-02-09T18:11:42.078Z,99658.56
2023-02-09T18:14:13.311Z,99668.16
2023-02-09T18:16:43.206Z,99668.56
2023-02-09T18:19:12.239Z,99669.13
2023-02-09T18:21:47.800Z,99673.16
2023-02-09T18:24:16.327Z,99669.31
2023-02-09T18:26:48.031Z,99681.13
2023-02-09T18:29:16.700Z,99676.53
2023-02-09T18:31:46.721Z,99696.91
2023-02-09T18:34:18.309Z,99681.59
2023-02-09T18:36:47.004Z,99695.84
2023-02-09T18:39:16.419Z,99684.59
2023-02-09T18:41:48.486Z,99691.72
2023-02-09T18:44:16.651Z,99685.09
2023-02-09T18:46:44.916Z,99674.91
2023-02-09T18:49:14.291Z,99685.97
2023-02-09T18:51:43.133Z,99696.38
2023-02-09T18:54:11.372Z,99690.72
2023-02-09T18:56:40.306Z,99681.09
2023-02-09T18:59:10.268Z,99688.41
2023-02-09T19:01:42.196Z,99678.19
2023-02-09T19:04:10.896Z,99677.88
2023-02-09T19:06:40.697Z,99687.72
2023-02-09T19:09:09.201Z,99679.22
2023-02-09T19:11:37.641Z,99684.19
2023-02-09T19:14:23.457Z,99693.16
2023-02-09T19:16:53.468Z,99693.06
2023-02-09T19:19:22.715Z,99692.28
2023-02-09T19:21:52.296Z,99701.09
2023-02-09T19:24:20.804Z,99704.72
2023-02-09T19:26:49.038Z,99711.00
2023-02-09T19:29:18.518Z,99716.22
2023-02-09T19:31:48.679Z,99730.19
2023-02-09T19:34:18.264Z,99731.09
2023-02-09T19:36:48.426Z,99729.75
2023-02-09T19:39:18.197Z,99718.09
2023-02-09T19:41:47.308Z,99713.13
2023-02-09T19:44:24.167Z,99723.22
2023-02-09T19:46:52.564Z,99715.06
2023-02-09T19:49:24.261Z,99716.50
2023-02-09T19:51:52.323Z,99722.22
2023-02-09T19:54:20.379Z,99710.31
2023-02-09T19:56:48.658Z,99718.97
2023-02-09T19:59:23.781Z,99717.94
2023-02-09T20:01:52.058Z,99720.81
2023-02-09T20:04:23.803Z,99727.03
2023-02-09T20:06:52.604Z,99717.69
2023-02-09T20:09:21.314Z,99726.63
2023-02-09T20:14:17.763Z,99726.75
2023-02-09T20:16:46.056Z,99731.53
2023-02-09T20:19:14.509Z,99717.56
2023-02-09T20:21:44.320Z,99722.78
2023-02-09T20:24:13.430Z,99717.56
2023-02-09T20:26:42.062Z,99712.28
2023-02-09T20:29:11.280Z,99722.69
2023-02-09T20:31:42.399Z,99709.94
2023-02-09T20:34:15.053Z,99713.94
2023-02-09T20:36:48.722Z,99718.59
2023-02-09T20:39:19.053Z,99711.97
2023-02-09T20:42:04.460Z,99714.81
2023-02-09T20:44:50.407Z,99699.38
2023-02-09T20:47:19.896Z,99727.53
2023-02-09T20:49:47.998Z,99726.09
2023-02-09T20:52:17.901Z,99737.34
2023-02-09T20:54:46.073Z,99726.50
2023-02-09T20:57:14.367Z,99749.91
2023-02-09T20:59:42.321Z,99751.47
2023-02-09T21:02:11.790Z,99748.69
2023-02-09T21:04:39.988Z,99747.84
2023-02-09T21:07:08.009Z,99753.97
2023-02-09T21:09:39.190Z,99754.41
2023-02-09T21:12:07.473Z,99764.03
2023-02-09T21:14:42.212Z,99769.47
2023-02-09T21:17:11.237Z,99771.25
2023-02-09T21:19:39.407Z,99765.84
2023-02-09T21:22:07.823Z,99777.38
2023-02-09T21:24:38.020Z,99761.69
2023-02-09T21:27:06.777Z,99763.28
2023-02-09T21:29:35.551Z,99753.81
2023-02-09T21:32:05.202Z,99758.06
2023-02-09T21:34:33.983Z,99776.19
2023-02-09T21:37:02.144Z,99771.94
2023-02-09T21:39:32.062Z,99766.91
2023-02-09T21:42:19.048Z,99777.22
2023-02-09T21:44:47.466Z,99784.25
2023-02-09T21:47:15.604Z,99781.19
2023-02-09T21:49:43.550Z,99774.69
2023-02-09T21:52:11.673Z,99765.13
2023-02-09T21:54:40.576Z,99780.81
2023-02-09T21:57:10.313Z,99780.81
2023-02-09T21:59:38.783Z,99785.72
2023-02-09T22:02:06.815Z,99775.28
2023-02-09T22:04:35.049Z,99775.88
2023-02-09T22:07:03.093Z,99774.72
2023-02-09T22:09:31.945Z,99781.00
2023-02-09T22:11:59.987Z,99776.31
2023-02-09T22:14:30.048Z,99781.16
2023-02-09T22:16:58.612Z,99777.06
2023-02-09T22:19:27.067Z,99787.69
2023-02-09T22:21:57.691Z,99781.31
2023-02-09T22:24:26.268Z,99793.50
2023-02-09T22:26:54.500Z,99805.38
2023-02-09T22:29:22.841Z,99803.72
2023-02-09T22:31:52.215Z,99805.84
2023-02-09T22:34:20.389Z,99810.31
2023-02-09T22:36:51.938Z,99814.34
2023-02-09T22:39:19.818Z,99814.84
2023-02-09T22:41:48.535Z,99827.13
2023-02-09T22:44:17.724Z,99834.53
2023-02-09T22:46:47.468Z,99828.66
2023-02-09T22:49:19.112Z,99831.75
2023-02-09T22:51:49.695Z,99838.44
2023-02-09T22:54:21.236Z,99825.28
2023-02-09T22:56:49.632Z,99828.53
2023-02-09T22:59:20.076Z,99824.63
2023-02-09T23:01:49.246Z,99844.00
2023-02-09T23:04:18.769Z,99843.13
2023-02-09T23:06:47.037Z,99845.56
2023-02-09T23:09:16.361Z,99838.13
2023-02-09T23:11:45.379Z,99822.28
2023-02-09T23:14:14.138Z,99837.75
2023-02-09T23:16:43.674Z,99849.34
2023-02-09T23:19:15.618Z,99846.53
2023-02-09T23:21:46.659Z,99857.06
2023-02-09T23:24:15.831Z,99841.03
2023-02-09T23:26:44.213Z,99848.47
2023-02-09T23:29:15.297Z,99862.66
2023-02-09T23:31:44.561Z,99856.28
2023-02-09T23:34:15.458Z,99857.44
2023-02-09T23:36:45.735Z,99863.88
2023-02-09T23:39:16.933Z,99847.19
2023-02-09T23:41:45.265Z,99856.44
2023-02-09T23:44:13.771Z,99840.56
2023-02-09T23:46:44.769Z,99851.00
2023-02-09T23:49:12.951Z,99846.66
2023-02-09T23:51:40.944Z,99848.09
2023-02-09T23:54:11.972Z,99852.69
2023-02-09T23:56:42.543Z,99863.63
2023-02-09T23:59:14.607Z,99856.56
